LECH Airport Information

Runway Information
Runway 06 Length 8858 ft width 147 ft
Elevation 1093 ft Threshold ft Heading 57
Runway 24 Length 8858 ft Width 147 ft
Elevation 1181 ft Threshold ft Heading 237
Airport Frequencies
Airport Navaids
Airport Weather Information & NOTAM
ADDS - METARS form results

(0251 UTC 13 August 2022)
Data provider http://aviationweather.gov/metar/data/
 
METAR text: LECH 130230Z AUTO 22004KT 170V260 CAVOK 25/17 Q1012
Conditions at: LECH (CASTELLON , ES) observed 0230 UTC 13 August 2022
Temperature: 25.0°C (77°F)
Dewpoint: 17.0°C (63°F) [RH = 61%]
Pressure (altimeter): 29.88 inches Hg (1012.0 mb)
Winds: from the SW (220 degrees) at 5 MPH (4 knots; 2.1 m/s)
Visibility: 6 or more miles (10+ km)
Ceiling: ceiling and visibility are OK
Clouds: unknown
Weather: no significant weather observed at this time

METAR text: LECH 130200Z AUTO 24004KT 8000 NCD 23/18 Q1012
Conditions at: LECH (CASTELLON , ES) observed 0200 UTC 13 August 2022
Temperature: 23.0°C (73°F)
Dewpoint: 18.0°C (64°F) [RH = 73%]
Pressure (altimeter): 29.88 inches Hg (1012.0 mb)
Winds: from the WSW (240 degrees) at 5 MPH (4 knots; 2.1 m/s)
Visibility: 5 miles ( 8 km)
Ceiling: at least 12,000 feet AGL
Clouds: sky clear below 12,000 feet AGL
Weather: no significant weather observed at this time